sensor_id;sensor_type;location;lat;lon;timestamp;P1;durP1;ratioP1;P2;durP2;ratioP2
24159;SDS011;62385;41.594;23.808;2023-11-21T00:02:48;2.87;;;2.10;;
24159;SDS011;62385;41.594;23.808;2023-11-21T00:12:31;0.97;;;0.87;;
24159;SDS011;62385;41.594;23.808;2023-11-21T00:18:39;2.63;;;1.33;;
24159;SDS011;62385;41.594;23.808;2023-11-21T00:21:05;4.53;;;1.57;;
24159;SDS011;62385;41.594;23.808;2023-11-21T00:23:31;1.17;;;1.07;;
24159;SDS011;62385;41.594;23.808;2023-11-21T00:25:57;1.40;;;0.83;;
24159;SDS011;62385;41.594;23.808;2023-11-21T00:28:23;2.30;;;2.10;;
24159;SDS011;62385;41.594;23.808;2023-11-21T00:30:48;1.80;;;1.23;;
24159;SDS011;62385;41.594;23.808;2023-11-21T00:33:14;0.97;;;0.77;;
24159;SDS011;62385;41.594;23.808;2023-11-21T00:35:39;1.73;;;0.97;;
24159;SDS011;62385;41.594;23.808;2023-11-21T00:38:05;3.80;;;1.33;;
24159;SDS011;62385;41.594;23.808;2023-11-21T00:40:31;0.73;;;0.30;;
24159;SDS011;62385;41.594;23.808;2023-11-21T00:42:57;2.53;;;1.33;;
24159;SDS011;62385;41.594;23.808;2023-11-21T00:45:23;4.43;;;1.83;;
24159;SDS011;62385;41.594;23.808;2023-11-21T00:47:49;2.97;;;0.97;;
24159;SDS011;62385;41.594;23.808;2023-11-21T00:50:15;1.07;;;0.97;;
24159;SDS011;62385;41.594;23.808;2023-11-21T00:52:41;2.27;;;1.10;;
24159;SDS011;62385;41.594;23.808;2023-11-21T00:55:06;3.03;;;2.03;;
24159;SDS011;62385;41.594;23.808;2023-11-21T00:57:33;1.60;;;1.43;;
24159;SDS011;62385;41.594;23.808;2023-11-21T00:59:59;1.37;;;0.90;;
24159;SDS011;62385;41.594;23.808;2023-11-21T01:02:25;2.63;;;1.63;;
24159;SDS011;62385;41.594;23.808;2023-11-21T01:04:52;0.47;;;0.40;;
24159;SDS011;62385;41.594;23.808;2023-11-21T01:07:18;0.93;;;0.93;;
24159;SDS011;62385;41.594;23.808;2023-11-21T01:09:45;0.60;;;0.60;;
24159;SDS011;62385;41.594;23.808;2023-11-21T01:12:12;2.33;;;1.80;;
24159;SDS011;62385;41.594;23.808;2023-11-21T01:14:39;1.93;;;1.80;;
24159;SDS011;62385;41.594;23.808;2023-11-21T01:17:04;0.77;;;0.43;;
24159;SDS011;62385;41.594;23.808;2023-11-21T01:19:30;3.40;;;2.00;;
24159;SDS011;62385;41.594;23.808;2023-11-21T01:21:56;2.53;;;1.23;;
24159;SDS011;62385;41.594;23.808;2023-11-21T01:24:23;1.07;;;0.83;;
24159;SDS011;62385;41.594;23.808;2023-11-21T01:26:49;1.53;;;1.13;;
24159;SDS011;62385;41.594;23.808;2023-11-21T01:29:14;1.07;;;0.67;;
24159;SDS011;62385;41.594;23.808;2023-11-21T01:31:40;1.53;;;1.20;;
24159;SDS011;62385;41.594;23.808;2023-11-21T01:34:06;1.93;;;1.27;;
24159;SDS011;62385;41.594;23.808;2023-11-21T01:36:32;1.33;;;0.77;;
24159;SDS011;62385;41.594;23.808;2023-11-21T01:38:59;1.10;;;0.80;;
24159;SDS011;62385;41.594;23.808;2023-11-21T01:41:25;3.83;;;1.63;;
24159;SDS011;62385;41.594;23.808;2023-11-21T01:43:55;0.50;;;0.30;;
24159;SDS011;62385;41.594;23.808;2023-11-21T01:46:21;0.70;;;0.70;;
24159;SDS011;62385;41.594;23.808;2023-11-21T01:48:49;1.70;;;1.13;;
24159;SDS011;62385;41.594;23.808;2023-11-21T01:51:38;1.43;;;1.33;;
24159;SDS011;62385;41.594;23.808;2023-11-21T01:54:04;1.07;;;0.73;;
24159;SDS011;62385;41.594;23.808;2023-11-21T01:57:03;1.93;;;1.73;;
24159;SDS011;62385;41.594;23.808;2023-11-21T01:59:35;1.63;;;1.03;;
24159;SDS011;62385;41.594;23.808;2023-11-21T02:02:05;2.43;;;1.27;;
24159;SDS011;62385;41.594;23.808;2023-11-21T02:04:33;2.53;;;1.83;;
24159;SDS011;62385;41.594;23.808;2023-11-21T02:06:59;1.87;;;1.73;;
24159;SDS011;62385;41.594;23.808;2023-11-21T02:09:28;0.80;;;0.80;;
24159;SDS011;62385;41.594;23.808;2023-11-21T02:11:56;1.03;;;0.60;;
24159;SDS011;62385;41.594;23.808;2023-11-21T02:14:24;1.80;;;0.93;;
24159;SDS011;62385;41.594;23.808;2023-11-21T02:16:56;4.50;;;1.93;;
24159;SDS011;62385;41.594;23.808;2023-11-21T02:19:22;0.80;;;0.60;;
24159;SDS011;62385;41.594;23.808;2023-11-21T02:21:53;1.83;;;1.33;;
24159;SDS011;62385;41.594;23.808;2023-11-21T02:24:26;1.80;;;1.57;;
24159;SDS011;62385;41.594;23.808;2023-11-21T02:27:00;2.77;;;1.70;;
24159;SDS011;62385;41.594;23.808;2023-11-21T02:29:28;2.30;;;1.33;;
24159;SDS011;62385;41.594;23.808;2023-11-21T02:31:54;0.93;;;0.77;;
24159;SDS011;62385;41.594;23.808;2023-11-21T02:34:21;1.40;;;1.13;;
24159;SDS011;62385;41.594;23.808;2023-11-21T02:36:47;0.80;;;0.80;;
24159;SDS011;62385;41.594;23.808;2023-11-21T02:39:16;1.43;;;0.77;;
24159;SDS011;62385;41.594;23.808;2023-11-21T02:41:43;0.67;;;0.47;;
24159;SDS011;62385;41.594;23.808;2023-11-21T02:44:09;0.60;;;0.60;;
24159;SDS011;62385;41.594;23.808;2023-11-21T02:46:36;2.43;;;1.53;;
24159;SDS011;62385;41.594;23.808;2023-11-21T02:49:05;2.13;;;1.93;;
24159;SDS011;62385;41.594;23.808;2023-11-21T02:51:31;3.73;;;1.90;;
24159;SDS011;62385;41.594;23.808;2023-11-21T02:53:58;9.93;;;4.37;;
24159;SDS011;62385;41.594;23.808;2023-11-21T02:56:27;6.33;;;3.03;;
24159;SDS011;62385;41.594;23.808;2023-11-21T02:58:55;1.50;;;1.40;;
24159;SDS011;62385;41.594;23.808;2023-11-21T03:01:21;4.43;;;2.30;;
24159;SDS011;62385;41.594;23.808;2023-11-21T03:03:46;1.70;;;0.70;;
24159;SDS011;62385;41.594;23.808;2023-11-21T03:06:13;3.97;;;2.13;;
24159;SDS011;62385;41.594;23.808;2023-11-21T03:08:39;4.07;;;2.10;;
24159;SDS011;62385;41.594;23.808;2023-11-21T03:11:06;2.10;;;1.00;;
24159;SDS011;62385;41.594;23.808;2023-11-21T03:13:33;2.93;;;2.23;;
24159;SDS011;62385;41.594;23.808;2023-11-21T03:15:59;1.77;;;0.87;;
24159;SDS011;62385;41.594;23.808;2023-11-21T03:18:25;1.40;;;1.13;;
24159;SDS011;62385;41.594;23.808;2023-11-21T03:20:52;2.00;;;1.00;;
24159;SDS011;62385;41.594;23.808;2023-11-21T03:23:18;1.20;;;1.10;;
24159;SDS011;62385;41.594;23.808;2023-11-21T03:25:44;0.60;;;0.60;;
24159;SDS011;62385;41.594;23.808;2023-11-21T03:28:14;2.40;;;1.50;;
24159;SDS011;62385;41.594;23.808;2023-11-21T03:30:39;1.83;;;1.73;;
24159;SDS011;62385;41.594;23.808;2023-11-21T03:33:05;3.13;;;2.80;;
24159;SDS011;62385;41.594;23.808;2023-11-21T03:35:31;3.20;;;1.67;;
24159;SDS011;62385;41.594;23.808;2023-11-21T03:37:57;2.47;;;1.37;;
24159;SDS011;62385;41.594;23.808;2023-11-21T03:40:23;4.30;;;3.90;;
24159;SDS011;62385;41.594;23.808;2023-11-21T03:42:49;9.37;;;2.00;;
24159;SDS011;62385;41.594;23.808;2023-11-21T03:45:15;3.77;;;2.37;;
24159;SDS011;62385;41.594;23.808;2023-11-21T03:47:41;6.37;;;2.30;;
24159;SDS011;62385;41.594;23.808;2023-11-21T03:50:07;4.80;;;3.07;;
24159;SDS011;62385;41.594;23.808;2023-11-21T03:52:36;1.40;;;1.30;;
24159;SDS011;62385;41.594;23.808;2023-11-21T03:55:02;3.53;;;2.37;;
24159;SDS011;62385;41.594;23.808;2023-11-21T03:57:28;6.23;;;2.83;;
24159;SDS011;62385;41.594;23.808;2023-11-21T03:59:54;3.63;;;2.17;;
24159;SDS011;62385;41.594;23.808;2023-11-21T04:02:19;2.77;;;1.60;;
24159;SDS011;62385;41.594;23.808;2023-11-21T04:04:45;5.67;;;2.00;;
24159;SDS011;62385;41.594;23.808;2023-11-21T04:07:11;3.10;;;2.80;;
24159;SDS011;62385;41.594;23.808;2023-11-21T04:09:38;2.60;;;2.07;;
24159;SDS011;62385;41.594;23.808;2023-11-21T04:12:06;1.73;;;1.50;;
24159;SDS011;62385;41.594;23.808;2023-11-21T04:14:34;4.70;;;1.70;;
24159;SDS011;62385;41.594;23.808;2023-11-21T04:16:59;1.87;;;1.60;;
24159;SDS011;62385;41.594;23.808;2023-11-21T04:19:25;7.43;;;2.60;;
24159;SDS011;62385;41.594;23.808;2023-11-21T04:21:50;2.67;;;1.13;;
24159;SDS011;62385;41.594;23.808;2023-11-21T04:24:16;2.77;;;1.70;;
24159;SDS011;62385;41.594;23.808;2023-11-21T04:26:43;3.30;;;2.33;;
24159;SDS011;62385;41.594;23.808;2023-11-21T04:29:09;1.17;;;0.90;;
24159;SDS011;62385;41.594;23.808;2023-11-21T04:31:34;1.50;;;1.40;;
24159;SDS011;62385;41.594;23.808;2023-11-21T04:34:00;3.83;;;2.33;;
24159;SDS011;62385;41.594;23.808;2023-11-21T04:36:25;0.70;;;0.60;;
24159;SDS011;62385;41.594;23.808;2023-11-21T04:38:51;2.37;;;1.90;;
24159;SDS011;62385;41.594;23.808;2023-11-21T04:41:17;6.90;;;3.00;;
24159;SDS011;62385;41.594;23.808;2023-11-21T04:43:43;25.03;;;12.47;;
24159;SDS011;62385;41.594;23.808;2023-11-21T04:46:08;11.40;;;4.63;;
24159;SDS011;62385;41.594;23.808;2023-11-21T04:48:34;4.03;;;2.83;;
24159;SDS011;62385;41.594;23.808;2023-11-21T04:51:00;11.93;;;6.77;;
24159;SDS011;62385;41.594;23.808;2023-11-21T04:53:25;6.40;;;5.80;;
24159;SDS011;62385;41.594;23.808;2023-11-21T04:55:51;4.30;;;2.90;;
24159;SDS011;62385;41.594;23.808;2023-11-21T04:58:17;4.13;;;3.07;;
24159;SDS011;62385;41.594;23.808;2023-11-21T05:00:42;26.87;;;10.57;;
24159;SDS011;62385;41.594;23.808;2023-11-21T05:03:09;26.10;;;12.87;;
24159;SDS011;62385;41.594;23.808;2023-11-21T05:05:34;4.87;;;3.93;;
24159;SDS011;62385;41.594;23.808;2023-11-21T05:08:00;4.43;;;2.87;;
24159;SDS011;62385;41.594;23.808;2023-11-21T05:10:27;7.03;;;5.03;;
24159;SDS011;62385;41.594;23.808;2023-11-21T05:12:52;21.50;;;8.97;;
24159;SDS011;62385;41.594;23.808;2023-11-21T05:15:18;15.47;;;4.17;;
24159;SDS011;62385;41.594;23.808;2023-11-21T05:17:44;4.47;;;4.07;;
24159;SDS011;62385;41.594;23.808;2023-11-21T05:20:11;5.10;;;2.63;;
24159;SDS011;62385;41.594;23.808;2023-11-21T05:22:38;9.87;;;3.83;;
24159;SDS011;62385;41.594;23.808;2023-11-21T05:25:04;6.13;;;4.33;;
24159;SDS011;62385;41.594;23.808;2023-11-21T05:27:32;7.33;;;5.40;;
24159;SDS011;62385;41.594;23.808;2023-11-21T05:29:58;4.67;;;4.27;;
24159;SDS011;62385;41.594;23.808;2023-11-21T05:32:24;6.17;;;3.70;;
24159;SDS011;62385;41.594;23.808;2023-11-21T05:34:50;3.60;;;2.10;;
24159;SDS011;62385;41.594;23.808;2023-11-21T05:37:17;4.23;;;3.37;;
24159;SDS011;62385;41.594;23.808;2023-11-21T05:39:43;8.00;;;4.90;;
24159;SDS011;62385;41.594;23.808;2023-11-21T05:42:08;3.40;;;2.77;;
24159;SDS011;62385;41.594;23.808;2023-11-21T05:44:36;7.53;;;4.47;;
24159;SDS011;62385;41.594;23.808;2023-11-21T05:47:02;5.17;;;3.50;;
24159;SDS011;62385;41.594;23.808;2023-11-21T05:49:28;13.60;;;4.50;;
24159;SDS011;62385;41.594;23.808;2023-11-21T05:51:55;10.50;;;3.03;;
24159;SDS011;62385;41.594;23.808;2023-11-21T05:54:33;5.37;;;3.60;;
24159;SDS011;62385;41.594;23.808;2023-11-21T05:56:59;9.30;;;5.93;;
24159;SDS011;62385;41.594;23.808;2023-11-21T06:03:51;17.10;;;9.63;;
24159;SDS011;62385;41.594;23.808;2023-11-21T07:09:05;7.80;;;5.23;;
24159;SDS011;62385;41.594;23.808;2023-11-21T07:15:59;6.83;;;4.63;;
24159;SDS011;62385;41.594;23.808;2023-11-21T07:18:25;10.47;;;5.37;;
24159;SDS011;62385;41.594;23.808;2023-11-21T07:20:51;8.27;;;3.70;;
24159;SDS011;62385;41.594;23.808;2023-11-21T07:23:17;7.17;;;5.03;;
24159;SDS011;62385;41.594;23.808;2023-11-21T07:25:42;16.23;;;9.33;;
24159;SDS011;62385;41.594;23.808;2023-11-21T07:28:08;8.17;;;6.47;;
24159;SDS011;62385;41.594;23.808;2023-11-21T07:30:34;40.70;;;16.30;;
24159;SDS011;62385;41.594;23.808;2023-11-21T07:33:00;7.30;;;5.30;;
24159;SDS011;62385;41.594;23.808;2023-11-21T07:35:26;5.73;;;4.73;;
24159;SDS011;62385;41.594;23.808;2023-11-21T07:37:51;3.73;;;3.33;;
24159;SDS011;62385;41.594;23.808;2023-11-21T07:40:17;6.73;;;5.87;;
24159;SDS011;62385;41.594;23.808;2023-11-21T07:42:43;8.43;;;4.37;;
24159;SDS011;62385;41.594;23.808;2023-11-21T07:45:09;9.77;;;4.00;;
24159;SDS011;62385;41.594;23.808;2023-11-21T07:47:35;7.47;;;3.53;;
24159;SDS011;62385;41.594;23.808;2023-11-21T07:50:04;5.93;;;3.67;;
24159;SDS011;62385;41.594;23.808;2023-11-21T07:52:30;7.13;;;4.67;;
24159;SDS011;62385;41.594;23.808;2023-11-21T07:54:56;4.30;;;2.43;;
24159;SDS011;62385;41.594;23.808;2023-11-21T07:57:22;4.90;;;3.17;;
24159;SDS011;62385;41.594;23.808;2023-11-21T07:59:50;10.20;;;3.90;;
24159;SDS011;62385;41.594;23.808;2023-11-21T08:02:19;8.37;;;3.67;;
24159;SDS011;62385;41.594;23.808;2023-11-21T08:04:44;7.60;;;3.67;;
24159;SDS011;62385;41.594;23.808;2023-11-21T08:07:10;7.27;;;5.03;;
24159;SDS011;62385;41.594;23.808;2023-11-21T08:09:36;6.17;;;4.73;;
24159;SDS011;62385;41.594;23.808;2023-11-21T08:12:02;3.97;;;3.60;;
24159;SDS011;62385;41.594;23.808;2023-11-21T08:14:40;5.37;;;3.10;;
24159;SDS011;62385;41.594;23.808;2023-11-21T08:50:29;1.83;;;1.23;;
24159;SDS011;62385;41.594;23.808;2023-11-21T08:53:16;3.30;;;1.80;;
24159;SDS011;62385;41.594;23.808;2023-11-21T08:55:42;1.07;;;0.97;;
24159;SDS011;62385;41.594;23.808;2023-11-21T08:58:09;1.77;;;0.83;;
24159;SDS011;62385;41.594;23.808;2023-11-21T09:00:34;7.00;;;1.43;;
24159;SDS011;62385;41.594;23.808;2023-11-21T09:03:01;1.33;;;1.17;;
24159;SDS011;62385;41.594;23.808;2023-11-21T09:05:28;2.13;;;1.93;;
24159;SDS011;62385;41.594;23.808;2023-11-21T09:07:54;1.37;;;1.27;;
24159;SDS011;62385;41.594;23.808;2023-11-21T09:10:19;3.47;;;1.60;;
24159;SDS011;62385;41.594;23.808;2023-11-21T09:12:46;0.93;;;0.50;;
24159;SDS011;62385;41.594;23.808;2023-11-21T09:15:11;0.67;;;0.60;;
24159;SDS011;62385;41.594;23.808;2023-11-21T09:17:37;1.07;;;0.53;;
24159;SDS011;62385;41.594;23.808;2023-11-21T09:20:04;0.50;;;0.47;;
24159;SDS011;62385;41.594;23.808;2023-11-21T09:22:31;0.57;;;0.57;;
24159;SDS011;62385;41.594;23.808;2023-11-21T09:24:57;2.07;;;0.80;;
24159;SDS011;62385;41.594;23.808;2023-11-21T09:27:23;1.33;;;0.63;;
24159;SDS011;62385;41.594;23.808;2023-11-21T09:29:51;3.13;;;0.70;;
24159;SDS011;62385;41.594;23.808;2023-11-21T09:32:18;1.47;;;1.37;;
24159;SDS011;62385;41.594;23.808;2023-11-21T09:34:47;1.50;;;1.37;;
24159;SDS011;62385;41.594;23.808;2023-11-21T09:37:14;1.10;;;0.50;;
24159;SDS011;62385;41.594;23.808;2023-11-21T09:39:39;1.27;;;1.10;;
24159;SDS011;62385;41.594;23.808;2023-11-21T09:47:35;1.43;;;1.23;;
24159;SDS011;62385;41.594;23.808;2023-11-21T09:50:04;3.03;;;1.87;;
24159;SDS011;62385;41.594;23.808;2023-11-21T09:52:36;1.13;;;1.03;;
24159;SDS011;62385;41.594;23.808;2023-11-21T09:59:25;0.67;;;0.50;;
24159;SDS011;62385;41.594;23.808;2023-11-21T10:02:43;4.53;;;0.53;;
24159;SDS011;62385;41.594;23.808;2023-11-21T10:05:09;1.53;;;0.87;;
24159;SDS011;62385;41.594;23.808;2023-11-21T10:07:37;0.70;;;0.70;;
24159;SDS011;62385;41.594;23.808;2023-11-21T10:10:34;2.17;;;0.93;;
24159;SDS011;62385;41.594;23.808;2023-11-21T10:47:11;1.77;;;1.20;;
24159;SDS011;62385;41.594;23.808;2023-11-21T11:42:03;2.00;;;1.00;;
24159;SDS011;62385;41.594;23.808;2023-11-21T11:47:13;3.08;;;1.70;;
24159;SDS011;62385;41.594;23.808;2023-11-21T11:50:01;5.45;;;2.28;;
24159;SDS011;62385;41.594;23.808;2023-11-21T11:52:48;1.83;;;1.47;;
24159;SDS011;62385;41.594;23.808;2023-11-21T11:55:17;5.67;;;2.77;;
24159;SDS011;62385;41.594;23.808;2023-11-21T11:57:43;2.47;;;2.22;;
24159;SDS011;62385;41.594;23.808;2023-11-21T12:00:16;8.75;;;2.72;;
24159;SDS011;62385;41.594;23.808;2023-11-21T12:02:46;11.07;;;2.90;;
24159;SDS011;62385;41.594;23.808;2023-11-21T12:05:17;2.75;;;1.98;;
24159;SDS011;62385;41.594;23.808;2023-11-21T12:10:20;9.52;;;2.45;;
24159;SDS011;62385;41.594;23.808;2023-11-21T12:12:48;2.70;;;1.40;;
24159;SDS011;62385;41.594;23.808;2023-11-21T12:15:15;1.27;;;1.23;;
24159;SDS011;62385;41.594;23.808;2023-11-21T12:17:42;4.82;;;2.30;;
24159;SDS011;62385;41.594;23.808;2023-11-21T12:20:09;6.25;;;2.30;;
24159;SDS011;62385;41.594;23.808;2023-11-21T12:23:03;8.43;;;2.97;;
24159;SDS011;62385;41.594;23.808;2023-11-21T12:25:29;8.50;;;2.67;;
24159;SDS011;62385;41.594;23.808;2023-11-21T12:28:00;4.88;;;2.92;;
24159;SDS011;62385;41.594;23.808;2023-11-21T12:30:31;3.35;;;2.15;;
24159;SDS011;62385;41.594;23.808;2023-11-21T12:33:01;4.88;;;1.60;;
24159;SDS011;62385;41.594;23.808;2023-11-21T12:35:36;2.63;;;1.58;;
24159;SDS011;62385;41.594;23.808;2023-11-21T12:38:03;2.80;;;1.50;;
24159;SDS011;62385;41.594;23.808;2023-11-21T12:40:34;3.60;;;0.70;;
24159;SDS011;62385;41.594;23.808;2023-11-21T12:43:03;1.77;;;1.35;;
24159;SDS011;62385;41.594;23.808;2023-11-21T12:45:41;9.98;;;1.63;;
24159;SDS011;62385;41.594;23.808;2023-11-21T12:48:53;1.55;;;0.98;;
24159;SDS011;62385;41.594;23.808;2023-11-21T12:51:34;4.15;;;0.85;;
24159;SDS011;62385;41.594;23.808;2023-11-21T12:54:44;1.30;;;1.20;;
24159;SDS011;62385;41.594;23.808;2023-11-21T12:57:27;3.60;;;1.33;;
24159;SDS011;62385;41.594;23.808;2023-11-21T12:59:57;1.77;;;1.30;;
24159;SDS011;62385;41.594;23.808;2023-11-21T13:02:25;3.15;;;1.45;;
24159;SDS011;62385;41.594;23.808;2023-11-21T13:04:52;1.77;;;1.38;;
24159;SDS011;62385;41.594;23.808;2023-11-21T13:07:19;1.77;;;1.15;;
24159;SDS011;62385;41.594;23.808;2023-11-21T13:09:45;6.43;;;2.08;;
24159;SDS011;62385;41.594;23.808;2023-11-21T13:12:11;1.88;;;1.27;;
24159;SDS011;62385;41.594;23.808;2023-11-21T13:14:39;1.33;;;0.88;;
24159;SDS011;62385;41.594;23.808;2023-11-21T13:17:05;1.15;;;0.90;;
24159;SDS011;62385;41.594;23.808;2023-11-21T13:19:31;4.30;;;2.15;;
24159;SDS011;62385;41.594;23.808;2023-11-21T13:21:56;1.73;;;1.63;;
24159;SDS011;62385;41.594;23.808;2023-11-21T13:24:23;5.90;;;1.52;;
24159;SDS011;62385;41.594;23.808;2023-11-21T13:26:51;0.70;;;0.60;;
24159;SDS011;62385;41.594;23.808;2023-11-21T13:29:17;2.92;;;1.05;;
24159;SDS011;62385;41.594;23.808;2023-11-21T13:31:42;1.63;;;0.98;;
24159;SDS011;62385;41.594;23.808;2023-11-21T13:34:10;2.65;;;1.45;;
24159;SDS011;62385;41.594;23.808;2023-11-21T13:41:00;5.20;;;2.33;;
24159;SDS011;62385;41.594;23.808;2023-11-21T13:43:37;2.30;;;1.45;;
24159;SDS011;62385;41.594;23.808;2023-11-21T13:46:26;2.83;;;2.10;;
24159;SDS011;62385;41.594;23.808;2023-11-21T15:22:29;30.63;;;9.80;;
24159;SDS011;62385;41.594;23.808;2023-11-21T15:25:48;18.88;;;11.93;;
24159;SDS011;62385;41.594;23.808;2023-11-21T15:28:17;25.33;;;9.70;;
24159;SDS011;62385;41.594;23.808;2023-11-21T15:41:41;13.50;;;8.20;;
24159;SDS011;62385;41.594;23.808;2023-11-21T15:44:01;26.58;;;14.35;;
24159;SDS011;62385;41.594;23.808;2023-11-21T15:46:26;23.63;;;15.88;;
24159;SDS011;62385;41.594;23.808;2023-11-21T15:48:53;39.13;;;20.38;;
24159;SDS011;62385;41.594;23.808;2023-11-21T15:51:19;56.90;;;26.48;;
24159;SDS011;62385;41.594;23.808;2023-11-21T15:53:45;52.65;;;21.10;;
24159;SDS011;62385;41.594;23.808;2023-11-21T15:56:11;51.83;;;24.40;;
24159;SDS011;62385;41.594;23.808;2023-11-21T15:58:41;45.53;;;24.58;;
24159;SDS011;62385;41.594;23.808;2023-11-21T16:01:11;56.50;;;20.03;;
24159;SDS011;62385;41.594;23.808;2023-11-21T16:06:39;40.45;;;19.42;;
24159;SDS011;62385;41.594;23.808;2023-11-21T16:12:05;33.58;;;13.35;;
24159;SDS011;62385;41.594;23.808;2023-11-21T16:15:01;18.50;;;10.77;;
24159;SDS011;62385;41.594;23.808;2023-11-21T16:17:33;21.00;;;11.02;;
24159;SDS011;62385;41.594;23.808;2023-11-21T16:20:07;20.95;;;10.48;;
24159;SDS011;62385;41.594;23.808;2023-11-21T16:22:40;22.90;;;8.43;;
24159;SDS011;62385;41.594;23.808;2023-11-21T16:25:06;33.05;;;15.05;;
24159;SDS011;62385;41.594;23.808;2023-11-21T16:27:39;18.23;;;10.23;;
24159;SDS011;62385;41.594;23.808;2023-11-21T16:30:06;16.10;;;8.37;;
24159;SDS011;62385;41.594;23.808;2023-11-21T16:32:36;15.05;;;10.07;;
24159;SDS011;62385;41.594;23.808;2023-11-21T16:35:44;11.43;;;6.60;;
24159;SDS011;62385;41.594;23.808;2023-11-21T16:38:12;13.73;;;8.00;;
24159;SDS011;62385;41.594;23.808;2023-11-21T16:40:41;14.53;;;6.63;;
24159;SDS011;62385;41.594;23.808;2023-11-21T16:43:08;17.23;;;7.93;;
24159;SDS011;62385;41.594;23.808;2023-11-21T16:45:35;13.37;;;7.00;;
24159;SDS011;62385;41.594;23.808;2023-11-21T16:48:01;17.07;;;5.90;;
24159;SDS011;62385;41.594;23.808;2023-11-21T16:50:28;10.80;;;5.35;;
24159;SDS011;62385;41.594;23.808;2023-11-21T16:52:53;10.53;;;3.87;;
24159;SDS011;62385;41.594;23.808;2023-11-21T16:55:19;6.80;;;4.20;;
24159;SDS011;62385;41.594;23.808;2023-11-21T16:57:45;9.33;;;5.23;;
24159;SDS011;62385;41.594;23.808;2023-11-21T17:00:11;8.53;;;5.97;;
24159;SDS011;62385;41.594;23.808;2023-11-21T17:02:39;8.07;;;5.97;;
24159;SDS011;62385;41.594;23.808;2023-11-21T17:05:06;13.97;;;7.43;;
24159;SDS011;62385;41.594;23.808;2023-11-21T17:08:06;26.87;;;12.57;;
24159;SDS011;62385;41.594;23.808;2023-11-21T17:11:14;15.93;;;8.73;;
24159;SDS011;62385;41.594;23.808;2023-11-21T17:13:46;28.60;;;10.32;;
24159;SDS011;62385;41.594;23.808;2023-11-21T17:16:12;23.15;;;9.73;;
24159;SDS011;62385;41.594;23.808;2023-11-21T17:18:38;27.97;;;15.10;;
24159;SDS011;62385;41.594;23.808;2023-11-21T17:21:03;36.87;;;14.47;;
24159;SDS011;62385;41.594;23.808;2023-11-21T17:23:31;23.40;;;12.90;;
24159;SDS011;62385;41.594;23.808;2023-11-21T17:25:57;33.63;;;13.00;;
24159;SDS011;62385;41.594;23.808;2023-11-21T17:28:23;22.63;;;12.10;;
24159;SDS011;62385;41.594;23.808;2023-11-21T17:30:52;17.77;;;9.47;;
24159;SDS011;62385;41.594;23.808;2023-11-21T17:33:19;39.23;;;13.13;;
24159;SDS011;62385;41.594;23.808;2023-11-21T17:35:45;24.52;;;11.20;;
24159;SDS011;62385;41.594;23.808;2023-11-21T17:38:11;24.27;;;8.98;;
24159;SDS011;62385;41.594;23.808;2023-11-21T17:40:40;23.95;;;11.60;;
24159;SDS011;62385;41.594;23.808;2023-11-21T17:43:12;25.73;;;12.70;;
24159;SDS011;62385;41.594;23.808;2023-11-21T17:49:53;26.50;;;15.73;;
24159;SDS011;62385;41.594;23.808;2023-11-21T17:52:19;33.42;;;13.85;;
24159;SDS011;62385;41.594;23.808;2023-11-21T17:54:50;22.88;;;11.68;;
24159;SDS011;62385;41.594;23.808;2023-11-21T17:57:18;22.48;;;9.65;;
24159;SDS011;62385;41.594;23.808;2023-11-21T18:00:18;18.75;;;11.93;;
24159;SDS011;62385;41.594;23.808;2023-11-21T18:03:03;21.60;;;11.50;;
24159;SDS011;62385;41.594;23.808;2023-11-21T18:05:29;15.00;;;7.78;;
24159;SDS011;62385;41.594;23.808;2023-11-21T18:07:55;13.73;;;6.78;;
24159;SDS011;62385;41.594;23.808;2023-11-21T18:10:24;17.52;;;6.85;;
24159;SDS011;62385;41.594;23.808;2023-11-21T18:12:52;16.48;;;7.88;;
24159;SDS011;62385;41.594;23.808;2023-11-21T18:15:19;17.52;;;8.48;;
24159;SDS011;62385;41.594;23.808;2023-11-21T18:17:45;10.75;;;6.32;;
24159;SDS011;62385;41.594;23.808;2023-11-21T18:20:11;19.50;;;7.87;;
24159;SDS011;62385;41.594;23.808;2023-11-21T18:22:37;16.63;;;8.52;;
24159;SDS011;62385;41.594;23.808;2023-11-21T18:25:04;15.40;;;7.85;;
24159;SDS011;62385;41.594;23.808;2023-11-21T18:27:30;14.48;;;9.38;;
24159;SDS011;62385;41.594;23.808;2023-11-21T18:29:56;19.73;;;7.45;;
24159;SDS011;62385;41.594;23.808;2023-11-21T18:32:28;12.73;;;4.22;;
24159;SDS011;62385;41.594;23.808;2023-11-21T18:34:54;3.72;;;1.90;;
24159;SDS011;62385;41.594;23.808;2023-11-21T18:37:21;1.63;;;1.23;;
24159;SDS011;62385;41.594;23.808;2023-11-21T18:39:50;1.00;;;0.50;;
24159;SDS011;62385;41.594;23.808;2023-11-21T18:42:19;1.23;;;0.67;;
24159;SDS011;62385;41.594;23.808;2023-11-21T18:44:47;2.43;;;1.70;;
24159;SDS011;62385;41.594;23.808;2023-11-21T18:47:12;3.80;;;1.20;;
24159;SDS011;62385;41.594;23.808;2023-11-21T18:49:41;0.50;;;0.47;;
24159;SDS011;62385;41.594;23.808;2023-11-21T18:52:07;1.58;;;0.77;;
24159;SDS011;62385;41.594;23.808;2023-11-21T18:54:37;3.03;;;1.23;;
24159;SDS011;62385;41.594;23.808;2023-11-21T18:57:16;1.80;;;1.27;;
24159;SDS011;62385;41.594;23.808;2023-11-21T19:04:56;4.90;;;3.00;;
24159;SDS011;62385;41.594;23.808;2023-11-21T19:12:18;5.72;;;4.35;;
24159;SDS011;62385;41.594;23.808;2023-11-21T19:15:21;20.25;;;5.63;;
24159;SDS011;62385;41.594;23.808;2023-11-21T19:18:12;15.03;;;5.40;;
24159;SDS011;62385;41.594;23.808;2023-11-21T19:21:03;7.65;;;4.93;;
24159;SDS011;62385;41.594;23.808;2023-11-21T19:26:45;12.75;;;5.88;;
24159;SDS011;62385;41.594;23.808;2023-11-21T19:29:13;13.97;;;7.53;;
24159;SDS011;62385;41.594;23.808;2023-11-21T19:31:39;13.85;;;5.15;;
24159;SDS011;62385;41.594;23.808;2023-11-21T19:34:08;8.75;;;6.13;;
24159;SDS011;62385;41.594;23.808;2023-11-21T19:36:38;18.30;;;10.38;;
24159;SDS011;62385;41.594;23.808;2023-11-21T19:39:04;18.65;;;9.13;;
24159;SDS011;62385;41.594;23.808;2023-11-21T19:41:30;32.70;;;11.63;;
24159;SDS011;62385;41.594;23.808;2023-11-21T19:43:55;13.38;;;7.15;;
24159;SDS011;62385;41.594;23.808;2023-11-21T19:46:23;15.35;;;7.05;;
24159;SDS011;62385;41.594;23.808;2023-11-21T19:48:49;12.13;;;7.78;;
24159;SDS011;62385;41.594;23.808;2023-11-21T19:51:17;30.63;;;6.43;;
24159;SDS011;62385;41.594;23.808;2023-11-21T19:53:43;18.33;;;7.43;;
24159;SDS011;62385;41.594;23.808;2023-11-21T19:56:09;14.52;;;6.80;;
24159;SDS011;62385;41.594;23.808;2023-11-21T19:58:35;21.45;;;9.30;;
24159;SDS011;62385;41.594;23.808;2023-11-21T20:01:01;17.25;;;7.05;;
24159;SDS011;62385;41.594;23.808;2023-11-21T20:03:27;13.30;;;7.77;;
24159;SDS011;62385;41.594;23.808;2023-11-21T20:05:53;8.47;;;4.90;;
24159;SDS011;62385;41.594;23.808;2023-11-21T20:08:19;16.75;;;6.93;;
24159;SDS011;62385;41.594;23.808;2023-11-21T20:10:45;6.20;;;4.65;;
24159;SDS011;62385;41.594;23.808;2023-11-21T20:13:13;8.90;;;5.22;;
24159;SDS011;62385;41.594;23.808;2023-11-21T20:15:39;8.47;;;4.83;;
24159;SDS011;62385;41.594;23.808;2023-11-21T20:18:06;7.55;;;3.72;;
24159;SDS011;62385;41.594;23.808;2023-11-21T20:20:32;7.63;;;3.53;;
24159;SDS011;62385;41.594;23.808;2023-11-21T20:22:58;5.23;;;3.93;;
24159;SDS011;62385;41.594;23.808;2023-11-21T20:25:27;12.83;;;6.37;;
24159;SDS011;62385;41.594;23.808;2023-11-21T20:27:54;11.17;;;4.67;;
24159;SDS011;62385;41.594;23.808;2023-11-21T20:30:20;2.40;;;2.20;;